Weather reports worldwide

Advertisment
Berlin/Tempelhof, Germany (10384): temperature & dewpoint: 12.10.2018 03:00:00 - 18.10.2018 03:00:00 (CEST)Berlin/Tempelhof, Germany (10384): temperature 5cm & temperature -5cm: 12.10.2018 03:00:00 - 18.10.2018 03:00:00 (CEST)Berlin/Tempelhof, Germany (10384): temperature -20cm & temperature -100cm: 12.10.2018 03:00:00 - 18.10.2018 03:00:00 (CEST)Berlin/Tempelhof, Germany (10384): wind speed & gusts: 12.10.2018 03:00:00 - 18.10.2018 03:00:00 (CEST)Berlin/Tempelhof, Germany (10384): wind direction: 12.10.2018 03:00:00 - 18.10.2018 03:00:00 (CEST)Berlin/Tempelhof, Germany (10384): reduced air pressure: 12.10.2018 03:00:00 - 18.10.2018 03:00:00 (CEST)Berlin/Tempelhof, Germany (10384): sunshine duration: 12.10.2018 03:00:00 - 18.10.2018 03:00:00 (CEST)Berlin/Tempelhof, Germany (10384): precipitation: 12.10.2018 03:00:00 - 18.10.2018 03:00:00 (CEST)
Date & Time tt [°C] td [°C] tt 5cm [°C] tt -5cm [°C] tt -20cm [°C] tt -100cm [°C] ff [km/h] ff [kn] fx [km/h] fx [kn] dd ppp [hPa] sd [min] rr [mm]
18.10.2018 03:00:00 8,2 7,1 2,3 10,5 13,0 14,5 0 0 4 2 N 1019,6 0 0,0
18.10.2018 02:00:00 9,0 7,9 3,0 10,8 13,2 14,5 0 0 4 2 N 1019,7 0 0,0
18.10.2018 01:00:00 9,5 8,2 5,0 11,2 13,4 14,5 0 0 3 2 N 1019,8 0 0,0
18.10.2018 00:00:00 10,2 8,3 4,0 11,6 13,6 14,5 2 1 8 4 ESE 1019,8 0 0,0
17.10.2018 23:00:00 11,1 8,9 4,2 12,1 13,8 14,5 3 2 4 2 E 1019,8 0 0,0
17.10.2018 22:00:00 10,9 8,0 4,5 12,7 13,9 14,5 3 2 6 4 ESE 1019,8 0 0,0
17.10.2018 21:00:00 12,0 9,1 6,6 13,4 14,1 14,5 0 0 6 3 N 1019,5 0 0,0
17.10.2018 20:00:00 12,6 8,2 6,1 14,3 14,2 14,5 2 1 6 3 SSE 1019,4 0 0,0
17.10.2018 19:00:00 15,3 9,2 8,8 15,4 14,2 14,5 3 2 6 4 ESE 1019,1 0 0,0
17.10.2018 18:00:00 18,4 9,5 12,4 16,8 14,0 14,5 5 3 12 6 ESE 1018,8 21 0,0
17.10.2018 17:00:00 19,9 9,3 19,7 17,9 13,7 14,5 9 5 14 8 ESE 1018,6 60 0,0
17.10.2018 16:00:00 21,0 8,9 24,0 17,8 13,3 14,5 6 3 11 6 ESE 1018,6 60 0,0
17.10.2018 15:00:00 20,9 7,7 21,4 18,1 12,8 14,5 5 3 14 8 SSW 1018,8 60 0,0
17.10.2018 14:00:00 20,3 8,5 24,7 16,8 12,4 14,5 7 4 11 6 S 1019,1 60 0,0
17.10.2018 13:00:00 19,0 8,5 23,0 14,8 12,1 14,5 6 4 13 7 S 1019,5 60 0,0
17.10.2018 12:00:00 18,3 8,5 21,2 12,2 12,0 14,5 4 2 11 6 SE 1019,8 60 0,0
17.10.2018 11:00:00 15,7 8,4 14,7 10,6 12,0 14,5 5 3 7 4 S 1020,0 60 0,0
17.10.2018 10:00:00 11,5 8,5 9,7 10,1 12,1 14,5 2 1 6 4 NNE 1020,1 60 0,0
17.10.2018 09:00:00 9,3 7,1 7,9 9,4 12,2 14,6 6 3 10 5 SSW 1020,1 36 0,0
17.10.2018 08:00:00 7,6 6,4 3,4 9,4 12,4 14,5 5 3 7 4 ESE 1019,8 0 0,0
17.10.2018 07:00:00 8,7 7,0 2,7 9,7 12,6 14,6 4 2 9 5 ESE 1019,6 0 0,0
17.10.2018 06:00:00 8,2 6,6 2,5 9,9 12,8 14,6 3 2 5 3 ESE 1019,2 0 0,0
17.10.2018 05:00:00 7,9 6,0 2,1 10,2 12,9 14,6 0 0 6 4 N 1019,2 0 0,0
17.10.2018 04:00:00 9,6 7,1 3,0 10,5 13,1 14,6 2 1 12 6 SE 1019,2 0 0,0
17.10.2018 03:00:00 9,0 7,0 3,4 10,8 13,3 14,6 0 0 4 2 N 1019,3 0 0,0
17.10.2018 02:00:00 9,1 5,9 2,9 11,2 13,5 14,6 2 1 5 3 ESE 1019,5 0 0,0
17.10.2018 01:00:00 9,8 7,1 4,0 11,6 13,7 14,6 0 0 9 5 N 1019,5 0 0,0
17.10.2018 00:00:00 11,2 7,4 4,0 12,0 13,9 14,6 3 2 8 4 SSE 1019,5 0 0,0
16.10.2018 23:00:00 11,4 7,6 5,6 12,5 14,1 14,6 4 2 6 4 SE 1019,5 0 0,0
16.10.2018 22:00:00 12,2 7,7 7,2 13,0 14,3 14,6 0 0 4 2 N 1019,5 0 0,0
16.10.2018 21:00:00 12,2 7,6 5,8 13,6 14,4 14,6 0 0 5 3 N 1019,6 0 0,0
16.10.2018 20:00:00 13,1 7,5 6,3 14,4 14,6 14,6 2 1 4 2 ENE 1019,5 0 0,0
16.10.2018 19:00:00 14,4 7,2 7,3 15,6 14,6 14,6 2 1 6 3 E 1019,2 0 0,0
16.10.2018 18:00:00 18,3 7,2 12,2 17,0 14,4 14,6 5 3 10 5 ESE 1018,6 0 0,0
16.10.2018 17:00:00 19,3 7,1 18,5 18,1 14,1 14,6 8 5 10 6 ENE 1018,4 52 0,0
16.10.2018 16:00:00 20,3 7,0 21,2 18,1 13,8 14,6 6 4 13 7 E 1018,5 29 0,0
16.10.2018 15:00:00 19,9 7,0 22,2 18,1 13,3 14,6 7 4 16 9 ENE 1018,4 10 0,0
16.10.2018 14:00:00 20,6 6,5 27,8 17,4 12,9 14,6 7 4 17 9 E 1018,4 60 0,0
16.10.2018 13:00:00 19,5 6,7 23,0 15,4 12,6 14,6 7 4 15 8 SSE 1018,5 59 0,0
16.10.2018 12:00:00 18,2 7,3 21,5 12,8 12,5 14,6 8 5 14 8 SSE 1018,8 60 0,0
16.10.2018 11:00:00 15,6 7,2 15,2 11,3 12,5 14,6 9 5 13 7 SE 1018,8 60 0,0
16.10.2018 10:00:00 14,0 6,8 12,2 10,7 12,6 14,6 3 2 6 3 SSE 1018,4 60 0,0
16.10.2018 09:00:00 10,2 6,8 8,4 10,0 12,8 14,6 5 3 9 5 E 1018,4 28 0,0
16.10.2018 08:00:00 7,7 4,8 2,6 10,0 13,0 14,6 3 2 6 4 ESE 1018,1 0 0,0
16.10.2018 07:00:00 7,8 4,7 2,0 10,3 13,1 14,6 4 2 9 5 ENE 1017,6 0 0,0
16.10.2018 06:00:00 8,5 4,7 2,2 10,7 13,3 14,6 3 2 7 4 ESE 1017,3 0 0,0
16.10.2018 05:00:00 9,4 5,0 3,1 11,1 13,5 14,6 5 3 10 5 SE 1017,3 0 0,0
16.10.2018 04:00:00 9,6 4,1 3,5 11,5 13,7 14,6 2 1 11 6 W 1017,1 0 0,0
16.10.2018 03:00:00 12,7 4,9 9,2 11,8 13,9 14,6 7 4 16 9 SSE 1017,0 0 0,0
16.10.2018 02:00:00 13,3 4,9 9,8 12,0 14,1 14,6 9 5 13 7 SSE 1016,9 0 0,0
16.10.2018 01:00:00 11,8 4,3 4,5 12,5 14,2 14,6 3 2 13 7 S 1016,8 0 0,0
16.10.2018 00:00:00 13,8 4,6 8,7 13,0 14,4 14,6 8 4 14 8 SE 1016,9 0 0,0
15.10.2018 23:00:00 14,7 4,4 9,6 13,4 14,6 14,6 7 4 14 7 SSE 1017,0 0 0,0
15.10.2018 22:00:00 15,8 4,6 11,4 14,0 14,7 14,6 8 4 15 8 SE 1016,7 0 0,0
15.10.2018 21:00:00 15,8 4,5 11,3 14,6 14,8 14,6 8 4 13 7 SE 1016,6 0 0,0
15.10.2018 20:00:00 16,7 4,4 12,6 15,2 14,9 14,6 9 5 15 8 SE 1016,6 0 0,0
15.10.2018 19:00:00 17,4 4,5 13,3 16,2 14,9 14,6 9 5 20 11 ESE 1016,1 0 0,0
15.10.2018 18:00:00 19,0 4,4 16,5 17,3 14,7 14,6 11 6 19 11 SE 1016,0 33 0,0
15.10.2018 17:00:00 20,7 4,4 21,2 18,1 14,5 14,6 13 7 26 14 SE 1015,7 60 0,0
15.10.2018 16:00:00 21,4 5,8 23,9 17,7 14,2 14,6 14 8 26 14 SE 1015,6 55 0,0
15.10.2018 15:00:00 20,6 4,5 20,9 17,4 13,9 14,6 17 9 27 15 SE 1016,0 37 0,0
15.10.2018 14:00:00 20,6 5,2 21,4 16,6 13,6 14,6 12 6 19 11 SSE 1015,8 12 0,0
15.10.2018 13:00:00 20,3 5,1 24,0 15,9 13,3 14,6 12 7 19 10 S 1016,0 54 0,0
15.10.2018 12:00:00 19,3 4,9 21,4 13,8 13,2 14,6 12 6 22 12 SSW 1016,2 59 0,0
15.10.2018 11:00:00 17,3 4,7 17,0 12,2 13,3 14,6 14 8 23 13 S 1016,0 60 0,0
15.10.2018 10:00:00 15,5 4,9 13,9 11,8 13,4 14,6 13 7 24 13 SSE 1016,1 60 0,0
15.10.2018 09:00:00 12,2 5,0 10,7 11,3 13,6 14,6 11 6 16 9 ESE 1015,8 14 0,0
15.10.2018 08:00:00 11,5 4,7 8,4 11,3 13,7 14,6 10 5 13 7 ESE 1015,5 0 0,0
15.10.2018 07:00:00 10,4 4,6 3,8 11,7 13,9 14,6 6 4 14 7 ESE 1015,4 0 0,0
15.10.2018 06:00:00 12,0 4,5 8,8 12,1 14,1 14,6 10 6 16 9 ESE 1015,2 0 0,0
15.10.2018 05:00:00 13,1 4,3 9,2 12,5 14,3 14,6 9 5 17 9 SE 1015,3 0 0,0
15.10.2018 04:00:00 13,6 4,4 10,2 12,7 14,5 14,6 10 6 16 8 SE 1015,2 0 0,0
15.10.2018 03:00:00 13,8 4,7 9,4 13,2 14,6 14,6 7 4 14 8 SE 1015,3 0 0,0
15.10.2018 02:00:00 15,1 5,0 11,1 13,7 14,8 14,6 9 5 18 10 SE 1015,1 0 0,0
15.10.2018 01:00:00 16,0 5,3 12,8 14,1 14,9 14,6 11 6 21 11 SSE 1014,9 0 0,0
15.10.2018 00:00:00 16,5 5,8 13,3 14,5 15,1 14,6 12 7 23 12 SSE 1014,8 0 0,0
14.10.2018 23:00:00 17,7 6,0 14,3 14,9 15,2 14,6 11 6 19 11 SE 1014,9 0 0,0
14.10.2018 22:00:00 19,0 6,1 16,2 15,4 15,3 14,6 14 8 26 14 SSE 1014,8 0 0,0
14.10.2018 21:00:00 19,9 6,3 17,0 15,7 15,4 14,6 13 7 27 14 SE 1014,7 0 0,0
14.10.2018 20:00:00 20,0 7,1 15,5 16,3 15,5 14,6 8 5 18 10 SE 1014,8 0 0,0
14.10.2018 19:00:00 20,4 7,1 14,8 17,4 15,5 14,6 8 4 18 10 SE 1014,6 0 0,0
14.10.2018 18:00:00 22,5 6,9 19,8 18,6 15,3 14,6 12 7 29 16 SSE 1014,4 38 0,0
14.10.2018 17:00:00 23,7 6,4 23,7 19,6 15,0 14,6 16 9 33 18 SSE 1014,5 60 0,0
14.10.2018 16:00:00 24,2 6,2 25,7 19,9 14,6 14,6 23 12 37 20 SSE 1014,6 60 0,0
14.10.2018 15:00:00 23,6 7,1 24,2 19,5 14,2 14,6 20 11 37 20 SSE 1014,9 60 0,0
14.10.2018 14:00:00 22,7 8,0 25,7 18,3 13,8 14,6 19 11 31 17 SE 1015,5 60 0,0
14.10.2018 13:00:00 21,0 7,8 23,7 16,5 13,5 14,6 19 11 34 18 SSE 1016,3 60 0,0
14.10.2018 12:00:00 19,5 7,9 22,4 14,2 13,4 14,6 20 11 31 17 SSE 1016,7 60 0,0
14.10.2018 11:00:00 17,5 8,0 17,2 12,7 13,4 14,6 19 10 31 17 SSE 1017,0 60 0,0
14.10.2018 10:00:00 15,6 7,9 14,4 12,4 13,5 14,6 16 9 28 15 SSE 1017,4 60 0,0
14.10.2018 09:00:00 14,1 7,8 12,5 11,9 13,6 14,6 9 5 21 12 SE 1017,5 54 0,0
14.10.2018 08:00:00 12,7 7,5 10,4 11,9 13,7 14,6 13 7 20 11 SE 1017,4 0 0,0
14.10.2018 07:00:00 13,1 7,5 10,6 12,0 13,9 14,6 12 6 21 11 ESE 1017,5 0 0,0
14.10.2018 06:00:00 13,3 7,7 10,6 12,2 14,0 14,6 13 7 18 10 ESE 1018,2 0 0,0
14.10.2018 05:00:00 13,3 7,9 10,4 12,4 14,2 14,6 11 6 21 11 ESE 1018,7 0 0,0
14.10.2018 04:00:00 13,3 8,0 9,9 12,7 14,4 14,6 9 5 16 9 ESE 1019,2 0 0,0
14.10.2018 03:00:00 13,4 8,0 10,6 13,0 14,6 14,6 10 6 17 9 SE 1019,9 0 0,0
14.10.2018 02:00:00 14,1 8,2 10,3 13,3 14,8 14,6 10 5 15 8 ESE 1020,3 0 0,0
14.10.2018 01:00:00 15,3 8,1 10,9 13,8 14,9 14,6 10 5 16 9 ESE 1020,7 0 0,0
14.10.2018 00:00:00 15,3 8,6 12,0 14,2 15,1 14,6 10 5 17 9 ESE 1021,0 0 0,0
13.10.2018 23:00:00 15,9 9,0 12,7 14,7 15,3 14,6 10 6 17 9 ESE 1021,2 0 0,0
13.10.2018 22:00:00 16,7 9,0 13,2 15,2 15,5 14,6 10 5 16 9 ESE 1021,5 0 0,0
13.10.2018 21:00:00 17,3 8,7 13,0 15,9 15,6 14,6 10 5 18 10 ESE 1021,6 0 0,0
13.10.2018 20:00:00 18,8 8,7 14,1 16,8 15,7 14,6 9 5 16 9 ESE 1021,9 0 0,0
13.10.2018 19:00:00 20,4 8,7 15,4 17,9 15,7 14,6 9 5 13 7 ESE 1021,8 0 0,0
13.10.2018 18:00:00 22,7 8,4 18,9 19,5 15,5 14,6 10 5 19 10 ESE 1021,9 43 0,0
13.10.2018 17:00:00 24,5 7,4 24,7 20,7 15,1 14,6 16 9 26 14 SE 1022,3 60 0,0
13.10.2018 16:00:00 25,3 8,1 27,7 20,9 14,7 14,6 14 7 26 14 SSE 1022,7 60 0,0
13.10.2018 15:00:00 25,1 9,2 27,0 20,5 14,1 14,6 16 9 30 16 SSE 1023,1 60 0,0
13.10.2018 14:00:00 24,4 9,7 27,9 19,2 13,6 14,6 15 8 23 12 SE 1023,6 60 0,0
13.10.2018 13:00:00 23,2 9,5 27,7 17,1 13,2 14,6 11 6 18 10 SSE 1024,3 60 0,0
13.10.2018 12:00:00 21,3 10,1 24,9 14,3 13,1 14,6 11 6 18 10 SSE 1024,8 60 0,0
13.10.2018 11:00:00 18,8 10,0 18,2 12,4 13,1 14,6 10 5 16 9 SSE 1025,0 60 0,0
13.10.2018 10:00:00 15,8 9,6 14,4 12,0 13,2 14,6 10 6 14 8 SSE 1025,4 60 0,0
13.10.2018 09:00:00 13,2 9,4 10,9 11,2 13,3 14,6 5 3 10 5 SE 1025,5 58 0,0
13.10.2018 08:00:00 10,9 8,7 6,9 11,2 13,5 14,6 4 2 9 5 SE 1025,2 0 0,0
13.10.2018 07:00:00 11,2 8,9 6,5 11,4 13,7 14,6 4 2 8 5 ESE 1025,2 0 0,0
13.10.2018 06:00:00 11,5 8,7 5,3 11,7 13,8 14,6 4 2 9 5 ESE 1025,1 0 0,0
13.10.2018 05:00:00 12,1 9,4 6,7 11,9 14,0 14,6 4 2 8 5 ESE 1024,9 0 0,0
13.10.2018 04:00:00 12,7 9,6 7,2 12,2 14,3 14,6 6 3 8 4 ESE 1024,7 0 0,0
13.10.2018 03:00:00 11,8 9,2 6,4 12,6 14,5 14,6 3 2 7 4 ESE 1024,6 0 0,0
13.10.2018 02:00:00 13,2 9,9 6,4 13,0 14,7 14,6 5 3 9 5 ESE 1024,7 0 0,0
13.10.2018 01:00:00 12,8 9,1 6,0 13,5 14,9 14,6 4 2 6 4 ESE 1024,5 0 0,0
13.10.2018 00:00:00 13,9 9,3 7,1 14,1 15,1 14,6 4 2 9 5 ESE 1024,5 0 0,0
12.10.2018 23:00:00 16,8 10,4 10,6 14,6 15,3 14,6 6 3 13 7 SE 1024,5 0 0,0
12.10.2018 22:00:00 15,6 9,6 8,3 15,3 15,5 14,6 4 2 10 5 ESE 1024,6 0 0,0
12.10.2018 21:00:00 17,5 9,9 9,4 16,1 15,7 14,6 7 4 12 6 SE 1024,1 0 0,0
12.10.2018 20:00:00 20,1 10,0 11,1 17,1 15,8 14,6 3 2 10 5 S 1024,0 0 0,0
12.10.2018 19:00:00 21,8 9,8 15,6 18,3 15,7 14,6 7 4 12 7 SE 1023,4 0 0,0
12.10.2018 18:00:00 23,9 9,3 20,5 19,8 15,5 14,6 9 5 16 8 SE 1022,9 45 0,0
12.10.2018 17:00:00 25,1 8,9 25,9 21,0 15,1 14,6 9 5 18 10 SSE 1022,9 60 0,0
12.10.2018 16:00:00 25,3 8,6 27,9 21,2 14,5 14,6 10 6 18 10 SSW 1022,9 60 0,0
12.10.2018 15:00:00 24,8 8,7 28,4 20,6 14,0 14,6 10 6 18 10 S 1022,6 60 0,0
12.10.2018 14:00:00 23,3 9,3 28,0 19,1 13,5 14,6 10 6 19 11 SSE 1022,5 60 0,0
12.10.2018 13:00:00 22,2 9,2 26,1 17,0 13,1 14,6 12 7 18 10 SE 1022,5 60 0,0
12.10.2018 12:00:00 20,2 9,3 23,8 14,2 13,0 14,6 9 5 16 8 S 1022,9 60 0,0
12.10.2018 11:00:00 18,1 9,9 17,6 12,4 13,0 14,6 9 5 17 9 S 1022,6 60 0,0
12.10.2018 10:00:00 15,9 9,7 14,5 12,0 13,1 14,6 12 6 19 10 SSE 1022,0 60 0,0
12.10.2018 09:00:00 13,7 9,1 12,4 11,4 13,2 14,6 11 6 17 9 SSE 1021,3 58 0,0
12.10.2018 08:00:00 11,9 8,6 8,4 11,4 13,3 14,6 7 4 12 6 ESE 1021,0 0 0,0
12.10.2018 07:00:00 11,9 8,5 8,3 11,6 13,5 14,6 8 5 14 8 SE 1020,4 0 0,0
12.10.2018 06:00:00 12,5 8,6 9,8 11,9 13,6 14,6 10 6 16 9 SE 1019,9 0 0,0
12.10.2018 05:00:00 13,0 8,5 9,6 12,1 13,8 14,6 9 5 13 7 SE 1019,7 0 0,0
12.10.2018 04:00:00 13,6 8,5 9,9 12,4 14,0 14,6 9 5 13 7 ESE 1019,4 0 0,0
12.10.2018 03:00:00 14,4 8,3 11,4 12,8 14,1 14,6 10 6 17 9 SE 1019,2 0 0,0

tt = temperature
td = dewpoint
tt 5cm = temperature 5cm
tt -5cm = temperature -5cm
tt -20cm = temperature -20cm
tt -100cm = temperature -100cm
ff = wind speed
fx = gusts
dd = wind direction
ppp = reduced air pressure
sd = sunshine duration
rr = precipitation

Next stations